Arundel, Maine
Current Conditions -  °F | °C
As of 4:15 AM on Thursday 23 Oct 2014 (Local Time) from KSFM Reporting Station
Overcast Overcast  
Wind Chill:   Ceiling: 600
Heat Index:   Visibility: 4mi
Dew Point:   Wind: 25mph
Humidity: 81%   Direction: 20°NNE
Pressure: 29.82"   Gusts: 32mph
Location:  43.4079°N, 70.4735°W
Report Text: KSFM 230815Z AUTO 02022G28KT 4SM OVC006 08/05 A2982 RMK AO1 P0002
Loading
Personal Weather Stations






























Interactive Weather Map
Tropical Storm Tracking
New forecast layout! Learn more

10-Day Weather Forecast

Advertisements
Track Severe Weather on mobile